Time;durP1;ratioP1;P1;durP2;ratioP2;P2;SDS_P1;SDS_P2;PMS_P1;PMS_P2;Temp;Humidity;BMP_temperature;BMP_pressure;BME280_temperature;BME280_humidity;BME280_pressure;Samples;Min_cycle;Max_cycle;Signal;HPM_P1;HPM_P2
2022/08/01 00:00:32;;;;;;;;;;;18.70;99.90;;;;;;5032568;28;19967;-72
2022/08/01 00:02:57;;;;;;;;;;;18.70;99.90;;;;;;5033460;28;19914;-72
2022/08/01 00:05:23;;;;;;;;;;;18.70;99.90;;;;;;5033772;28;19913;-72
2022/08/01 00:07:48;;;;;;;;;;;18.70;99.90;;;;;;5046226;28;19913;-73
2022/08/01 00:10:15;;;;;;;;;;;18.70;99.90;;;;;;5034882;28;19921;-73
2022/08/01 00:12:41;;;;;;;;;;;18.70;99.90;;;;;;5047523;28;19913;-73
2022/08/01 00:15:07;;;;;;;;;;;18.70;99.90;;;;;;5034648;28;19924;-72
2022/08/01 00:17:33;;;;;;;;;;;18.70;99.90;;;;;;5025792;28;19925;-73
2022/08/01 00:20:04;;;;;;;;;;;18.70;99.90;;;;;;5031986;28;20208;-74
2022/08/01 00:22:33;;;;;;;;;;;18.70;99.90;;;;;;5046281;28;19919;-73
2022/08/01 00:24:59;;;;;;;;;;;18.70;99.90;;;;;;5028725;28;19917;-73
2022/08/01 00:27:24;;;;;;;;;;;18.70;99.90;;;;;;5025580;28;19928;-73
2022/08/01 00:29:50;;;;;;;;;;;18.70;99.90;;;;;;5036684;28;19913;-73
2022/08/01 00:32:15;;;;;;;;;;;18.70;99.90;;;;;;5032178;28;19921;-74
2022/08/01 00:34:41;;;;;;;;;;;18.70;99.90;;;;;;5032883;28;19909;-73
2022/08/01 00:37:07;;;;;;;;;;;18.70;99.90;;;;;;5042217;28;19921;-73
2022/08/01 00:39:33;;;;;;;;;;;18.70;99.90;;;;;;5041830;28;19983;-72
2022/08/01 00:41:59;;;;;;;;;;;18.70;99.90;;;;;;5033977;28;20301;-73
2022/08/01 00:44:24;;;;;;;;;;;18.70;99.90;;;;;;5033825;28;19920;-73
2022/08/01 00:46:50;;;;;;;;;;;18.70;99.90;;;;;;5034250;28;19913;-73
2022/08/01 00:49:16;;;;;;;;;;;18.70;99.90;;;;;;5031052;28;20323;-73
2022/08/01 00:51:41;;;;;;;;;;;18.70;99.90;;;;;;5032359;28;19916;-73
2022/08/01 00:54:07;;;;;;;;;;;18.70;99.90;;;;;;5033115;28;19924;-73
2022/08/01 00:56:33;;;;;;;;;;;18.70;99.90;;;;;;5033143;28;19913;-73
2022/08/01 00:58:58;;;;;;;;;;;18.70;99.90;;;;;;5033818;28;20304;-73
2022/08/01 01:01:24;;;;;;;;;;;18.60;99.90;;;;;;5032981;28;20918;-72
2022/08/01 01:03:50;;;;;;;;;;;18.60;99.90;;;;;;5030713;28;19917;-73
2022/08/01 01:06:25;;;;;;;;;;;18.70;99.90;;;;;;5031892;28;20308;-72
2022/08/01 01:08:59;;;;;;;;;;;18.70;99.90;;;;;;5035388;28;19924;-73
2022/08/01 01:11:26;;;;;;;;;;;18.70;99.90;;;;;;5035433;28;19920;-74
2022/08/01 01:14:01;;;;;;;;;;;18.70;99.90;;;;;;5036423;28;19920;-73
2022/08/01 01:16:29;;;;;;;;;;;18.70;99.90;;;;;;5031670;28;20035;-72
2022/08/01 01:18:55;;;;;;;;;;;18.70;99.90;;;;;;5034961;28;21895;-73
2022/08/01 01:21:20;;;;;;;;;;;18.70;99.90;;;;;;5037279;28;19913;-73
2022/08/01 01:24:09;;;;;;;;;;;18.70;99.90;;;;;;5036321;28;20226;-73
2022/08/01 01:26:38;;;;;;;;;;;18.70;99.90;;;;;;5035250;28;19925;-75
2022/08/01 01:29:06;;;;;;;;;;;18.70;99.90;;;;;;5043466;28;20220;-73
2022/08/01 01:31:35;;;;;;;;;;;18.80;99.90;;;;;;5050880;28;19909;-73
2022/08/01 01:34:01;;;;;;;;;;;18.70;99.90;;;;;;5046166;28;19921;-73
2022/08/01 01:36:28;;;;;;;;;;;18.70;99.90;;;;;;5042234;28;19950;-73
2022/08/01 01:38:54;;;;;;;;;;;18.70;99.90;;;;;;5044810;28;19912;-73
2022/08/01 01:41:20;;;;;;;;;;;18.70;99.90;;;;;;5047971;28;19917;-73
2022/08/01 01:43:46;;;;;;;;;;;18.80;99.90;;;;;;5045021;28;19990;-73
2022/08/01 01:46:12;;;;;;;;;;;18.80;99.90;;;;;;5049443;28;19917;-74
2022/08/01 01:48:38;;;;;;;;;;;18.80;99.90;;;;;;5049789;28;19963;-74
2022/08/01 01:51:04;;;;;;;;;;;18.70;99.90;;;;;;5042165;28;19916;-73
2022/08/01 01:53:32;;;;;;;;;;;18.70;99.90;;;;;;5040868;28;19923;-74
2022/08/01 01:55:58;;;;;;;;;;;18.60;99.90;;;;;;5045593;28;20219;-74
2022/08/01 01:58:26;;;;;;;;;;;18.70;99.90;;;;;;5046589;28;20228;-74
2022/08/01 02:00:52;;;;;;;;;;;18.60;99.90;;;;;;5046789;28;20008;-74
2022/08/01 02:03:19;;;;;;;;;;;18.60;99.90;;;;;;5048411;28;20011;-74
2022/08/01 02:05:46;;;;;;;;;;;18.50;99.90;;;;;;5050551;28;19970;-74
2022/08/01 02:08:14;;;;;;;;;;;18.50;99.90;;;;;;5049183;28;19913;-74
2022/08/01 02:10:40;;;;;;;;;;;18.50;99.90;;;;;;5036223;28;19920;-72
2022/08/01 02:13:06;;;;;;;;;;;18.40;99.90;;;;;;5034743;28;19917;-73
2022/08/01 02:15:33;;;;;;;;;;;18.40;99.90;;;;;;5034776;28;19966;-73
2022/08/01 02:17:59;;;;;;;;;;;18.30;99.90;;;;;;5034023;28;19921;-73
2022/08/01 02:20:26;;;;;;;;;;;18.30;99.90;;;;;;5035103;28;19922;-73
2022/08/01 02:22:55;;;;;;;;;;;18.40;99.90;;;;;;5035604;28;20330;-73
2022/08/01 02:25:50;;;;;;;;;;;18.30;99.90;;;;;;5034386;28;20208;-73
2022/08/01 02:28:28;;;;;;;;;;;18.40;99.90;;;;;;4992966;28;19973;-73
2022/08/01 02:30:54;;;;;;;;;;;18.40;99.90;;;;;;4990559;28;19953;-73
2022/08/01 02:33:23;;;;;;;;;;;18.40;99.90;;;;;;4990780;28;19921;-74
2022/08/01 02:35:51;;;;;;;;;;;18.30;99.90;;;;;;4975031;28;19917;-74
2022/08/01 02:38:18;;;;;;;;;;;18.30;99.90;;;;;;4985812;28;20218;-73
2022/08/01 02:40:45;;;;;;;;;;;18.30;99.90;;;;;;4977066;28;19921;-76
2022/08/01 02:43:12;;;;;;;;;;;18.30;99.90;;;;;;4973774;28;20073;-74
2022/08/01 02:45:42;;;;;;;;;;;18.30;99.90;;;;;;4989569;28;19918;-73
2022/08/01 02:48:12;;;;;;;;;;;18.40;99.90;;;;;;4985239;28;19918;-75
2022/08/01 02:50:38;;;;;;;;;;;18.40;99.90;;;;;;4992336;28;19914;-72
2022/08/01 02:53:06;;;;;;;;;;;18.50;99.90;;;;;;4986320;28;19914;-73
2022/08/01 02:55:32;;;;;;;;;;;18.50;99.90;;;;;;4973984;28;20514;-73
2022/08/01 02:57:58;;;;;;;;;;;18.50;99.90;;;;;;4981526;28;19934;-73
2022/08/01 03:00:24;;;;;;;;;;;18.50;99.90;;;;;;4992168;28;20313;-73
2022/08/01 03:02:51;;;;;;;;;;;18.40;99.90;;;;;;4986622;28;19918;-73
2022/08/01 03:05:17;;;;;;;;;;;18.40;99.90;;;;;;5024650;28;19971;-73
2022/08/01 03:07:43;;;;;;;;;;;18.40;99.90;;;;;;5033774;28;19952;-72
2022/08/01 03:10:09;;;;;;;;;;;18.40;99.90;;;;;;5035295;28;20308;-72
2022/08/01 03:12:36;;;;;;;;;;;18.30;99.90;;;;;;5034665;28;19988;-72
2022/08/01 03:15:03;;;;;;;;;;;18.30;99.90;;;;;;5031961;28;20602;-73
2022/08/01 03:17:30;;;;;;;;;;;18.20;99.90;;;;;;5031258;28;20336;-72
2022/08/01 03:19:57;;;;;;;;;;;18.20;99.90;;;;;;5031978;28;19917;-72
2022/08/01 03:22:24;;;;;;;;;;;18.10;99.90;;;;;;5034452;28;19917;-73
2022/08/01 03:24:51;;;;;;;;;;;18.10;99.90;;;;;;5031682;28;19933;-73
2022/08/01 03:27:19;;;;;;;;;;;18.00;99.90;;;;;;5033881;28;19917;-73
2022/08/01 03:29:45;;;;;;;;;;;18.00;99.90;;;;;;5031435;28;19921;-77
2022/08/01 03:32:11;;;;;;;;;;;17.90;99.90;;;;;;5033982;28;19924;-73
2022/08/01 03:34:36;;;;;;;;;;;17.90;99.90;;;;;;5027993;28;19918;-73
2022/08/01 03:37:20;;;;;;;;;;;17.90;99.90;;;;;;5032163;28;19917;-73
2022/08/01 03:40:00;;;;;;;;;;;17.90;99.90;;;;;;5027404;28;19948;-73
2022/08/01 03:42:36;;;;;;;;;;;17.90;99.90;;;;;;5025040;28;19924;-72
2022/08/01 03:45:09;;;;;;;;;;;17.90;99.90;;;;;;5039487;28;19918;-73
2022/08/01 03:47:35;;;;;;;;;;;17.90;99.90;;;;;;5033377;28;19921;-72
2022/08/01 03:50:02;;;;;;;;;;;17.80;99.90;;;;;;5033042;28;19961;-74
2022/08/01 03:52:29;;;;;;;;;;;17.80;99.90;;;;;;5032858;28;20220;-73
2022/08/01 03:54:56;;;;;;;;;;;17.80;99.90;;;;;;5035610;28;19963;-72
2022/08/01 03:57:23;;;;;;;;;;;17.80;99.90;;;;;;5030853;28;20315;-72
2022/08/01 03:59:49;;;;;;;;;;;17.80;99.90;;;;;;5028098;28;19948;-72
2022/08/01 04:02:14;;;;;;;;;;;17.70;99.90;;;;;;5033633;28;19965;-73
2022/08/01 04:04:40;;;;;;;;;;;17.70;99.90;;;;;;5033838;28;19913;-74
2022/08/01 04:07:20;;;;;;;;;;;17.70;99.90;;;;;;5027086;28;19971;-74
2022/08/01 04:09:46;;;;;;;;;;;17.70;99.90;;;;;;5031926;28;19920;-73
2022/08/01 04:12:12;;;;;;;;;;;17.70;99.90;;;;;;5031626;28;19913;-73
2022/08/01 04:14:38;;;;;;;;;;;17.60;99.90;;;;;;5019771;28;19936;-74
2022/08/01 04:17:04;;;;;;;;;;;17.60;99.90;;;;;;5026264;28;20308;-73
2022/08/01 04:19:29;;;;;;;;;;;17.60;99.90;;;;;;5038255;28;19928;-74
2022/08/01 04:21:56;;;;;;;;;;;17.60;99.90;;;;;;5033283;28;20326;-74
2022/08/01 04:24:23;;;;;;;;;;;17.50;99.90;;;;;;5028990;28;19956;-74
2022/08/01 04:26:50;;;;;;;;;;;17.60;99.90;;;;;;5032222;28;19917;-75
2022/08/01 04:29:17;;;;;;;;;;;17.60;99.90;;;;;;5033385;28;19917;-74
2022/08/01 04:31:45;;;;;;;;;;;17.60;99.90;;;;;;5031765;28;20343;-75
2022/08/01 04:34:11;;;;;;;;;;;17.60;99.90;;;;;;5033078;28;19916;-75
2022/08/01 04:36:38;;;;;;;;;;;17.60;99.90;;;;;;5034460;28;20015;-74
2022/08/01 04:39:04;;;;;;;;;;;17.60;99.90;;;;;;5033536;28;20315;-75
2022/08/01 04:41:30;;;;;;;;;;;17.60;99.90;;;;;;5033932;28;19928;-74
2022/08/01 04:43:59;;;;;;;;;;;17.60;99.90;;;;;;5036064;28;19909;-74
2022/08/01 04:46:24;;;;;;;;;;;17.70;99.90;;;;;;5033839;28;20006;-74
2022/08/01 04:48:50;;;;;;;;;;;17.70;99.90;;;;;;5030604;28;19951;-72
2022/08/01 04:51:16;;;;;;;;;;;17.70;99.90;;;;;;5055374;28;19944;-73
2022/08/01 04:53:42;;;;;;;;;;;17.70;99.90;;;;;;5058295;28;19923;-73
2022/08/01 04:56:08;;;;;;;;;;;17.70;99.90;;;;;;5040134;28;19923;-74
2022/08/01 04:58:33;;;;;;;;;;;17.70;99.90;;;;;;5037875;28;20004;-73
2022/08/01 05:00:59;;;;;;;;;;;17.70;99.90;;;;;;5036503;28;19914;-72
2022/08/01 05:03:25;;;;;;;;;;;17.70;99.90;;;;;;5037102;28;19928;-72
2022/08/01 05:05:50;;;;;;;;;;;17.70;99.90;;;;;;5046687;28;19913;-73
2022/08/01 05:08:16;;;;;;;;;;;17.80;99.90;;;;;;5035897;28;19948;-73
2022/08/01 05:10:41;;;;;;;;;;;17.80;99.90;;;;;;5045667;28;19919;-74
2022/08/01 05:13:07;;;;;;;;;;;17.80;99.90;;;;;;5040424;28;19967;-74
2022/08/01 05:15:34;;;;;;;;;;;17.80;99.90;;;;;;5043107;28;19923;-73
2022/08/01 05:17:59;;;;;;;;;;;17.80;99.90;;;;;;5040347;28;19928;-74
2022/08/01 05:20:25;;;;;;;;;;;17.80;99.90;;;;;;5036108;28;20308;-73
2022/08/01 05:22:50;;;;;;;;;;;17.80;99.90;;;;;;5034107;28;19920;-73
2022/08/01 05:25:16;;;;;;;;;;;18.00;99.90;;;;;;5036095;28;19936;-75
2022/08/01 05:27:41;;;;;;;;;;;18.00;99.90;;;;;;5036720;28;19975;-72
2022/08/01 05:30:07;;;;;;;;;;;18.00;99.90;;;;;;5034248;28;19928;-72
2022/08/01 05:32:33;;;;;;;;;;;18.10;99.90;;;;;;5037926;28;19916;-72
2022/08/01 05:34:59;;;;;;;;;;;18.10;99.90;;;;;;5043187;28;19921;-71
2022/08/01 05:37:25;;;;;;;;;;;18.10;99.90;;;;;;5040981;28;20236;-72
2022/08/01 05:39:50;;;;;;;;;;;18.00;99.90;;;;;;5047527;28;19912;-72
2022/08/01 05:42:16;;;;;;;;;;;17.90;99.90;;;;;;5043717;28;19916;-72
2022/08/01 05:44:41;;;;;;;;;;;17.90;99.90;;;;;;5041277;28;19917;-76
2022/08/01 05:47:07;;;;;;;;;;;17.90;99.90;;;;;;5045050;28;20225;-75
2022/08/01 05:49:33;;;;;;;;;;;18.00;99.90;;;;;;5043835;28;19913;-75
2022/08/01 05:52:00;;;;;;;;;;;17.90;99.90;;;;;;5039018;28;19992;-75
2022/08/01 05:54:26;;;;;;;;;;;17.90;99.90;;;;;;5034849;28;19913;-73
2022/08/01 05:56:51;;;;;;;;;;;18.00;99.90;;;;;;5036596;28;19920;-76
2022/08/01 05:59:17;;;;;;;;;;;18.00;99.90;;;;;;5039736;28;19917;-74
2022/08/01 06:01:43;;;;;;;;;;;18.00;99.90;;;;;;5038400;28;19920;-75
2022/08/01 06:04:08;;;;;;;;;;;18.00;99.90;;;;;;5034277;28;20027;-75
2022/08/01 06:06:33;;;;;;;;;;;17.90;99.90;;;;;;5039642;28;19913;-75
2022/08/01 06:08:59;;;;;;;;;;;17.80;99.90;;;;;;5039347;28;19916;-74
2022/08/01 06:11:24;;;;;;;;;;;17.80;99.90;;;;;;5037443;28;19921;-75
2022/08/01 06:13:50;;;;;;;;;;;17.70;99.90;;;;;;5036726;28;20331;-75
2022/08/01 06:16:16;;;;;;;;;;;17.70;99.90;;;;;;5031792;28;19939;-79
2022/08/01 06:18:41;;;;;;;;;;;17.80;99.90;;;;;;5036408;28;19917;-79
2022/08/01 06:21:07;;;;;;;;;;;17.80;99.90;;;;;;5045265;28;19921;-77
2022/08/01 06:23:32;;;;;;;;;;;17.70;99.90;;;;;;5041710;28;20000;-77
2022/08/01 06:25:58;;;;;;;;;;;17.70;99.90;;;;;;5040736;28;19925;-73
2022/08/01 06:28:23;;;;;;;;;;;17.70;99.90;;;;;;5036243;28;20357;-77
2022/08/01 06:30:49;;;;;;;;;;;17.70;99.90;;;;;;5047209;28;19935;-77
2022/08/01 06:33:15;;;;;;;;;;;17.60;99.90;;;;;;5046324;28;19956;-75
2022/08/01 06:35:40;;;;;;;;;;;17.50;99.90;;;;;;5046023;28;19963;-79
2022/08/01 06:38:06;;;;;;;;;;;17.50;99.90;;;;;;5033692;28;19913;-75
2022/08/01 06:40:31;;;;;;;;;;;17.50;99.90;;;;;;5035960;28;19913;-76
2022/08/01 06:42:57;;;;;;;;;;;17.40;99.90;;;;;;5045348;28;20280;-73
2022/08/01 06:45:24;;;;;;;;;;;17.40;99.90;;;;;;5037493;28;20333;-76
2022/08/01 06:47:50;;;;;;;;;;;17.40;99.90;;;;;;5046040;28;19919;-75
2022/08/01 06:50:15;;;;;;;;;;;17.40;99.90;;;;;;5038604;28;20315;-75
2022/08/01 06:52:41;;;;;;;;;;;17.40;99.90;;;;;;5034912;28;19909;-75
2022/08/01 06:55:07;;;;;;;;;;;17.40;99.90;;;;;;5041648;28;19919;-74
2022/08/01 06:57:32;;;;;;;;;;;17.60;99.90;;;;;;5034824;28;19913;-73
2022/08/01 07:00:01;;;;;;;;;;;17.80;99.90;;;;;;5033781;28;20003;-74
2022/08/01 07:02:26;;;;;;;;;;;17.90;99.90;;;;;;5036623;28;19910;-74
2022/08/01 07:04:52;;;;;;;;;;;18.00;99.90;;;;;;5035337;28;20336;-74
2022/08/01 07:07:17;;;;;;;;;;;18.00;99.90;;;;;;5035300;28;19924;-73
2022/08/01 07:09:43;;;;;;;;;;;18.00;99.90;;;;;;5039119;28;19913;-72
2022/08/01 07:12:08;;;;;;;;;;;18.00;99.90;;;;;;5037207;28;19909;-74
2022/08/01 07:14:34;;;;;;;;;;;18.00;99.90;;;;;;5032715;28;19963;-74
2022/08/01 07:16:59;;;;;;;;;;;18.10;99.90;;;;;;5036763;28;20209;-72
2022/08/01 07:19:25;;;;;;;;;;;18.20;99.90;;;;;;5034646;28;19999;-72
2022/08/01 07:21:50;;;;;;;;;;;18.40;99.90;;;;;;5032722;28;19925;-73
2022/08/01 07:24:16;;;;;;;;;;;18.50;99.90;;;;;;5038727;28;19920;-73
2022/08/01 07:26:43;;;;;;;;;;;18.70;99.90;;;;;;5039105;28;19920;-73
2022/08/01 07:29:08;;;;;;;;;;;18.90;99.90;;;;;;5038531;28;20024;-73
2022/08/01 07:31:34;;;;;;;;;;;19.00;99.90;;;;;;5038715;28;20059;-74
2022/08/01 07:33:59;;;;;;;;;;;19.00;99.90;;;;;;5040373;28;20216;-72
2022/08/01 07:36:25;;;;;;;;;;;19.00;99.90;;;;;;5040579;28;19925;-74
2022/08/01 07:38:51;;;;;;;;;;;19.10;99.90;;;;;;5033587;28;19963;-73
2022/08/01 07:41:16;;;;;;;;;;;19.20;99.90;;;;;;5040798;28;19913;-73
2022/08/01 07:43:42;;;;;;;;;;;19.40;99.90;;;;;;5039221;28;19917;-75
2022/08/01 07:46:07;;;;;;;;;;;19.50;99.90;;;;;;5031430;28;20286;-73
2022/08/01 07:48:33;;;;;;;;;;;19.60;99.90;;;;;;5030514;28;20003;-73
2022/08/01 07:50:58;;;;;;;;;;;19.60;99.90;;;;;;5039491;28;19913;-73
2022/08/01 07:53:24;;;;;;;;;;;19.60;99.90;;;;;;5040472;28;19925;-77
2022/08/01 07:55:50;;;;;;;;;;;19.60;99.90;;;;;;5033029;28;19974;-74
2022/08/01 07:58:16;;;;;;;;;;;19.60;99.90;;;;;;5027319;28;19918;-72
2022/08/01 08:00:41;;;;;;;;;;;19.60;99.90;;;;;;5038750;28;19913;-74
2022/08/01 08:03:07;;;;;;;;;;;19.80;99.90;;;;;;5044679;28;19923;-73
2022/08/01 08:05:35;;;;;;;;;;;19.80;99.90;;;;;;5034108;28;19931;-72
2022/08/01 08:08:05;;;;;;;;;;;20.00;99.90;;;;;;5029696;28;19917;-72
2022/08/01 08:10:30;;;;;;;;;;;19.90;99.90;;;;;;5032310;28;19956;-76
2022/08/01 08:12:56;;;;;;;;;;;19.80;99.90;;;;;;5031815;28;19967;-71
2022/08/01 08:15:21;;;;;;;;;;;19.70;99.90;;;;;;5033645;28;19924;-73
2022/08/01 08:17:47;;;;;;;;;;;19.80;99.90;;;;;;5037549;28;19925;-73
2022/08/01 08:20:12;;;;;;;;;;;19.80;99.90;;;;;;5036604;28;19916;-72
2022/08/01 08:22:38;;;;;;;;;;;19.90;99.90;;;;;;5032633;28;19927;-72
2022/08/01 08:25:04;;;;;;;;;;;20.00;99.90;;;;;;5036146;28;19913;-72
2022/08/01 08:27:30;;;;;;;;;;;20.20;99.90;;;;;;5039511;28;19917;-74
2022/08/01 08:29:55;;;;;;;;;;;20.00;99.90;;;;;;5038728;28;19912;-71
2022/08/01 08:32:21;;;;;;;;;;;20.10;99.90;;;;;;5030214;28;19913;-71
2022/08/01 08:34:46;;;;;;;;;;;20.20;99.90;;;;;;5039314;28;19948;-74
2022/08/01 08:37:12;;;;;;;;;;;20.30;99.90;;;;;;5037292;28;20236;-78
2022/08/01 08:39:38;;;;;;;;;;;20.20;99.90;;;;;;5035327;28;19913;-74
2022/08/01 08:42:07;;;;;;;;;;;20.10;99.90;;;;;;5033653;28;19921;-73
2022/08/01 08:44:32;;;;;;;;;;;20.00;99.90;;;;;;5038241;28;19997;-74
2022/08/01 08:46:59;;;;;;;;;;;20.10;99.90;;;;;;5042695;28;20004;-72
2022/08/01 08:49:27;;;;;;;;;;;20.20;99.90;;;;;;5041543;28;20335;-74
2022/08/01 08:51:53;;;;;;;;;;;20.30;99.90;;;;;;5044693;28;20335;-73
2022/08/01 08:54:21;;;;;;;;;;;20.40;99.90;;;;;;5047401;28;20003;-74
2022/08/01 08:56:47;;;;;;;;;;;20.50;99.90;;;;;;5048357;28;19990;-71
2022/08/01 08:59:13;;;;;;;;;;;20.40;99.90;;;;;;5050912;28;20212;-74
2022/08/01 09:01:39;;;;;;;;;;;20.30;99.90;;;;;;5045899;28;19913;-73
2022/08/01 09:04:05;;;;;;;;;;;20.10;99.90;;;;;;5040242;28;20320;-73
2022/08/01 09:06:31;;;;;;;;;;;19.90;99.90;;;;;;5044879;28;20268;-74
2022/08/01 09:08:57;;;;;;;;;;;19.80;99.90;;;;;;5039418;28;19929;-74
2022/08/01 09:11:23;;;;;;;;;;;19.70;99.90;;;;;;5028049;28;19930;-75
2022/08/01 09:14:05;;;;;;;;;;;19.80;99.90;;;;;;5028957;28;19940;-74
2022/08/01 09:16:31;;;;;;;;;;;19.90;99.90;;;;;;5030311;28;20244;-72
2022/08/01 09:19:07;;;;;;;;;;;20.00;99.90;;;;;;5041810;28;20313;-74
2022/08/01 09:21:33;;;;;;;;;;;20.20;99.90;;;;;;5039934;28;19913;-73
2022/08/01 09:24:02;;;;;;;;;;;20.50;99.90;;;;;;5038234;28;20208;-76
2022/08/01 09:26:33;;;;;;;;;;;20.50;99.90;;;;;;5040294;28;19959;-73
2022/08/01 09:28:59;;;;;;;;;;;20.50;99.90;;;;;;5046495;28;20185;-71
2022/08/01 09:31:26;;;;;;;;;;;20.50;99.90;;;;;;5047079;28;20176;-73
2022/08/01 09:33:52;;;;;;;;;;;20.60;99.90;;;;;;5048959;28;20304;-74
2022/08/01 09:36:18;;;;;;;;;;;20.40;99.90;;;;;;5042531;28;19975;-72
2022/08/01 09:38:44;;;;;;;;;;;20.40;99.90;;;;;;5033479;28;19917;-72
2022/08/01 09:41:11;;;;;;;;;;;20.60;99.90;;;;;;5038523;28;19919;-77
2022/08/01 09:43:37;;;;;;;;;;;20.60;99.90;;;;;;5035601;28;19913;-73
2022/08/01 09:46:12;;;;;;;;;;;20.40;99.90;;;;;;5036189;28;19920;-73
2022/08/01 09:48:39;;;;;;;;;;;20.30;99.90;;;;;;5037910;28;19912;-73
2022/08/01 09:51:05;;;;;;;;;;;20.20;99.90;;;;;;5039205;28;20003;-74
2022/08/01 09:53:42;;;;;;;;;;;20.10;99.90;;;;;;5040204;28;19936;-72
2022/08/01 09:56:11;;;;;;;;;;;19.90;99.90;;;;;;5033420;28;19920;-73
2022/08/01 09:58:53;;;;;;;;;;;19.90;99.90;;;;;;5041281;28;19909;-73
2022/08/01 10:01:20;;;;;;;;;;;19.90;99.90;;;;;;5044316;28;19956;-74
2022/08/01 10:03:46;;;;;;;;;;;20.10;99.90;;;;;;5033019;28;19927;-75
2022/08/01 10:06:21;;;;;;;;;;;20.10;99.90;;;;;;5050081;28;19915;-71
2022/08/01 10:08:47;;;;;;;;;;;20.10;99.90;;;;;;5025478;28;19909;-74
2022/08/01 10:11:13;;;;;;;;;;;20.20;99.90;;;;;;5042095;28;20212;-72
2022/08/01 10:13:39;;;;;;;;;;;20.30;99.90;;;;;;5048803;28;19909;-77
2022/08/01 10:16:05;;;;;;;;;;;20.30;99.90;;;;;;5046432;28;19917;-73
2022/08/01 10:18:32;;;;;;;;;;;20.20;99.90;;;;;;5036202;28;19980;-74
2022/08/01 10:21:02;;;;;;;;;;;20.20;99.90;;;;;;5035880;28;20223;-74
2022/08/01 10:23:29;;;;;;;;;;;20.20;99.90;;;;;;5048760;28;19920;-76
2022/08/01 10:25:55;;;;;;;;;;;20.40;99.90;;;;;;5034362;28;19944;-73
2022/08/01 10:28:21;;;;;;;;;;;20.50;99.90;;;;;;5035070;28;20363;-76
2022/08/01 10:30:47;;;;;;;;;;;20.50;99.90;;;;;;5033473;28;20243;-76
2022/08/01 10:33:13;;;;;;;;;;;20.60;99.90;;;;;;5034828;28;20270;-75
2022/08/01 10:35:39;;;;;;;;;;;20.80;99.90;;;;;;5042665;28;20027;-75
2022/08/01 10:38:04;;;;;;;;;;;21.00;99.90;;;;;;5052393;28;20114;-74
2022/08/01 10:40:30;;;;;;;;;;;20.90;99.90;;;;;;5041930;28;19940;-73
2022/08/01 10:42:56;;;;;;;;;;;20.80;99.90;;;;;;5035747;28;19948;-74
2022/08/01 10:45:22;;;;;;;;;;;20.90;99.90;;;;;;5034847;28;20277;-75
2022/08/01 10:47:56;;;;;;;;;;;21.00;99.90;;;;;;5044155;28;20015;-75
2022/08/01 10:50:28;;;;;;;;;;;21.10;99.90;;;;;;5037058;28;19913;-75
2022/08/01 10:53:11;;;;;;;;;;;21.10;99.90;;;;;;5043680;28;19916;-77
2022/08/01 10:55:46;;;;;;;;;;;21.00;99.90;;;;;;5034333;28;20331;-75
2022/08/01 10:58:12;;;;;;;;;;;20.90;99.90;;;;;;5037570;28;19910;-74
2022/08/01 11:00:37;;;;;;;;;;;20.80;99.90;;;;;;5035258;28;19940;-74
2022/08/01 11:03:03;;;;;;;;;;;20.80;99.90;;;;;;5035183;28;19921;-73
2022/08/01 11:05:31;;;;;;;;;;;20.70;99.90;;;;;;5030290;28;19910;-74
2022/08/01 11:07:58;;;;;;;;;;;20.70;99.90;;;;;;5031854;28;19921;-73
2022/08/01 11:10:26;;;;;;;;;;;20.90;99.90;;;;;;5033965;28;19913;-73
2022/08/01 11:12:52;;;;;;;;;;;21.00;99.90;;;;;;5032194;28;19967;-75
2022/08/01 11:15:24;;;;;;;;;;;21.00;99.90;;;;;;5034007;28;19921;-74
2022/08/01 11:17:51;;;;;;;;;;;20.80;99.90;;;;;;5037120;28;20023;-75
2022/08/01 11:20:17;;;;;;;;;;;20.60;99.90;;;;;;5037518;28;19982;-74
2022/08/01 11:22:58;;;;;;;;;;;20.60;99.90;;;;;;5042511;28;20267;-73
2022/08/01 11:25:24;;;;;;;;;;;20.80;99.90;;;;;;5044339;28;19953;-75
2022/08/01 11:28:09;;;;;;;;;;;21.00;99.90;;;;;;5042811;28;20626;-73
2022/08/01 11:30:35;;;;;;;;;;;21.00;99.90;;;;;;5028819;28;19968;-76
2022/08/01 11:33:00;;;;;;;;;;;21.00;99.90;;;;;;5037030;28;20361;-74
2022/08/01 11:35:27;;;;;;;;;;;21.10;99.90;;;;;;5036856;28;19913;-73
2022/08/01 11:37:55;;;;;;;;;;;21.20;99.90;;;;;;5051230;28;19998;-73
2022/08/01 11:40:28;;;;;;;;;;;21.40;99.90;;;;;;5029347;28;19917;-74
2022/08/01 11:43:12;;;;;;;;;;;21.60;99.90;;;;;;5031994;28;20399;-74
2022/08/01 11:45:50;;;;;;;;;;;21.70;99.90;;;;;;5047011;28;19920;-73
2022/08/01 11:48:20;;;;;;;;;;;21.50;99.90;;;;;;5031305;28;20240;-72
2022/08/01 11:50:45;;;;;;;;;;;21.80;99.90;;;;;;5027179;28;20303;-73
2022/08/01 11:53:14;;;;;;;;;;;22.10;99.90;;;;;;5034111;28;19922;-74
2022/08/01 11:55:47;;;;;;;;;;;22.00;99.90;;;;;;5035074;28;19917;-72
2022/08/01 11:58:13;;;;;;;;;;;21.70;99.90;;;;;;5037562;28;20231;-76
2022/08/01 12:00:39;;;;;;;;;;;21.60;99.90;;;;;;5028495;28;19917;-73
2022/08/01 12:03:06;;;;;;;;;;;21.70;99.90;;;;;;5031932;28;19914;-76
2022/08/01 12:05:33;;;;;;;;;;;21.70;99.90;;;;;;5036238;28;19913;-73
2022/08/01 12:07:59;;;;;;;;;;;21.90;99.90;;;;;;5038198;28;19917;-75
2022/08/01 12:10:26;;;;;;;;;;;22.00;99.90;;;;;;5036373;28;20488;-75
2022/08/01 12:12:58;;;;;;;;;;;22.00;99.90;;;;;;5033356;28;19917;-74
2022/08/01 12:15:28;;;;;;;;;;;21.90;99.90;;;;;;5042158;28;20294;-75
2022/08/01 12:17:58;;;;;;;;;;;21.90;99.90;;;;;;5040913;28;20270;-73
2022/08/01 12:20:24;;;;;;;;;;;21.80;99.90;;;;;;5038610;28;19924;-74
2022/08/01 12:22:56;;;;;;;;;;;21.90;99.90;;;;;;5039766;28;19920;-77
2022/08/01 12:25:22;;;;;;;;;;;22.10;99.90;;;;;;5033746;28;19935;-74
2022/08/01 12:27:48;;;;;;;;;;;22.30;99.90;;;;;;5047186;28;19909;-74
2022/08/01 12:30:18;;;;;;;;;;;22.30;99.90;;;;;;5037123;28;19917;-73
2022/08/01 12:32:45;;;;;;;;;;;22.50;99.90;;;;;;5035970;28;19927;-73
2022/08/01 12:35:13;;;;;;;;;;;22.40;99.90;;;;;;5039941;28;19913;-72
2022/08/01 12:37:45;;;;;;;;;;;22.30;99.90;;;;;;5045193;28;19978;-73
2022/08/01 12:40:12;;;;;;;;;;;22.30;99.90;;;;;;5034232;28;20331;-75
2022/08/01 12:42:39;;;;;;;;;;;22.40;99.90;;;;;;5045717;28;19936;-76
2022/08/01 12:45:07;;;;;;;;;;;22.40;99.90;;;;;;5024559;28;20217;-72
2022/08/01 12:47:32;;;;;;;;;;;22.50;99.90;;;;;;5022897;28;19956;-72
2022/08/01 12:49:58;;;;;;;;;;;22.50;99.90;;;;;;5036764;28;19998;-74
2022/08/01 12:52:23;;;;;;;;;;;22.50;99.90;;;;;;5028444;28;19917;-74
2022/08/01 12:55:04;;;;;;;;;;;22.40;99.90;;;;;;5030690;28;19917;-74
2022/08/01 12:57:30;;;;;;;;;;;22.30;99.90;;;;;;5045146;28;19939;-73
2022/08/01 13:00:10;;;;;;;;;;;22.00;99.90;;;;;;5027420;28;19917;-73
2022/08/01 13:02:36;;;;;;;;;;;22.00;99.90;;;;;;5025722;28;19921;-76
2022/08/01 13:05:02;;;;;;;;;;;22.10;99.90;;;;;;5032659;28;19925;-72
2022/08/01 13:07:38;;;;;;;;;;;22.20;99.90;;;;;;5033251;28;20224;-74
2022/08/01 13:10:04;;;;;;;;;;;22.30;99.90;;;;;;5033632;28;19978;-74
2022/08/01 13:12:30;;;;;;;;;;;22.20;99.90;;;;;;5032804;28;19917;-73
2022/08/01 13:14:55;;;;;;;;;;;22.30;99.90;;;;;;5032167;28;20046;-73
2022/08/01 13:17:39;;;;;;;;;;;22.10;99.90;;;;;;5033600;28;20003;-74
2022/08/01 13:20:05;;;;;;;;;;;22.00;99.90;;;;;;5033295;28;19978;-74
2022/08/01 13:22:34;;;;;;;;;;;21.80;99.90;;;;;;5033878;28;20018;-75
2022/08/01 13:25:13;;;;;;;;;;;21.80;99.90;;;;;;5031490;28;19983;-73
2022/08/01 13:27:39;;;;;;;;;;;21.70;99.90;;;;;;5033659;28;19949;-75
2022/08/01 13:30:15;;;;;;;;;;;21.60;99.90;;;;;;5031386;28;20406;-73
2022/08/01 13:32:42;;;;;;;;;;;21.60;99.90;;;;;;5033646;28;20000;-76
2022/08/01 13:35:08;;;;;;;;;;;21.60;99.90;;;;;;5029853;28;20033;-73
2022/08/01 13:37:34;;;;;;;;;;;21.60;99.90;;;;;;5033253;28;20232;-75
2022/08/01 13:39:59;;;;;;;;;;;21.40;99.90;;;;;;5032133;28;19913;-74
2022/08/01 13:42:25;;;;;;;;;;;21.50;99.90;;;;;;5029337;28;19921;-75
2022/08/01 13:44:50;;;;;;;;;;;21.80;99.90;;;;;;5033785;28;20024;-75
2022/08/01 13:47:16;;;;;;;;;;;21.70;99.90;;;;;;5030857;28;19952;-74
2022/08/01 13:49:41;;;;;;;;;;;21.60;99.90;;;;;;5024540;28;19913;-73
2022/08/01 13:52:07;;;;;;;;;;;21.60;99.90;;;;;;5030906;28;20016;-76
2022/08/01 13:54:33;;;;;;;;;;;21.60;99.90;;;;;;5030764;28;19967;-72
2022/08/01 13:56:59;;;;;;;;;;;21.50;99.90;;;;;;5032438;28;20346;-72
2022/08/01 13:59:24;;;;;;;;;;;21.60;99.90;;;;;;5032749;28;20024;-73
2022/08/01 14:01:50;;;;;;;;;;;21.70;99.90;;;;;;5031711;28;19924;-71
2022/08/01 14:04:15;;;;;;;;;;;21.90;99.90;;;;;;5032035;28;19921;-73
2022/08/01 14:06:41;;;;;;;;;;;22.00;99.90;;;;;;5032874;28;19913;-72
2022/08/01 14:09:07;;;;;;;;;;;22.10;99.90;;;;;;5032735;28;20047;-73
2022/08/01 14:11:32;;;;;;;;;;;22.40;99.90;;;;;;5030345;28;19924;-71
2022/08/01 14:13:58;;;;;;;;;;;22.40;99.90;;;;;;5032969;28;19964;-72
2022/08/01 14:16:24;;;;;;;;;;;22.40;99.90;;;;;;5032074;28;19925;-72